createdAt,value
2018-05-23T00:00:56.780Z,13.20
2018-05-23T00:03:25.078Z,13.20
2018-05-23T00:05:53.168Z,13.20
2018-05-23T00:08:21.861Z,13.30
2018-05-23T00:10:49.403Z,13.20
2018-05-23T00:13:16.921Z,13.20
2018-05-23T00:15:44.901Z,13.10
2018-05-23T00:18:13.648Z,13.00
2018-05-23T00:20:41.619Z,13.00
2018-05-23T00:23:09.149Z,13.10
2018-05-23T00:25:37.708Z,13.10
2018-05-23T00:28:05.981Z,13.30
2018-05-23T00:30:34.542Z,13.30
2018-05-23T00:33:02.517Z,13.30
2018-05-23T00:35:30.047Z,13.30
2018-05-23T00:37:57.552Z,13.40
2018-05-23T00:40:25.925Z,13.40
2018-05-23T00:42:54.209Z,13.40
2018-05-23T00:45:22.472Z,13.50
2018-05-23T00:47:51.732Z,13.40
2018-05-23T00:50:19.276Z,13.40
2018-05-23T00:52:47.962Z,13.40
2018-05-23T00:55:27.433Z,13.40
2018-05-23T00:57:54.931Z,13.50
2018-05-23T01:00:23.238Z,13.40
2018-05-23T01:02:50.753Z,13.30
2018-05-23T01:05:18.844Z,13.40
2018-05-23T01:07:47.864Z,13.30
2018-05-23T01:10:15.388Z,13.30
2018-05-23T01:12:43.687Z,13.30
2018-05-23T01:15:11.807Z,13.30
2018-05-23T01:17:39.315Z,13.30
2018-05-23T01:20:06.848Z,13.20
2018-05-23T01:22:35.114Z,13.20
2018-05-23T01:25:02.635Z,13.10
2018-05-23T01:27:30.141Z,13.10
2018-05-23T01:29:58.462Z,13.10
2018-05-23T01:32:26.182Z,13.10
2018-05-23T01:34:54.119Z,13.10
2018-05-23T01:37:21.660Z,13.10
2018-05-23T01:39:49.158Z,13.00
2018-05-23T01:42:16.659Z,13.00
2018-05-23T01:44:44.195Z,13.00
2018-05-23T01:47:12.494Z,12.90
2018-05-23T01:49:40.024Z,12.90
2018-05-23T01:52:07.532Z,12.90
2018-05-23T01:54:35.065Z,13.00
2018-05-23T01:57:02.573Z,13.00
2018-05-23T01:59:30.105Z,12.90
2018-05-23T02:01:58.324Z,12.80
2018-05-23T02:04:25.833Z,12.90
2018-05-23T02:06:53.344Z,12.90
2018-05-23T02:09:21.815Z,13.00
2018-05-23T02:11:49.326Z,12.90
2018-05-23T02:14:17.185Z,12.90
2018-05-23T02:16:44.691Z,12.80
2018-05-23T02:19:12.199Z,12.80
2018-05-23T02:21:40.961Z,12.70
2018-05-23T02:24:08.480Z,12.70
2018-05-23T02:26:36.014Z,12.70
2018-05-23T02:29:03.975Z,12.80
2018-05-23T02:31:32.242Z,12.70
2018-05-23T02:34:00.560Z,12.70
2018-05-23T02:36:28.062Z,12.70
2018-05-23T02:38:56.047Z,12.70
2018-05-23T02:41:24.324Z,12.60
2018-05-23T02:43:52.601Z,12.70
2018-05-23T02:46:20.892Z,12.70
2018-05-23T02:48:48.889Z,12.70
2018-05-23T02:51:16.416Z,12.80
2018-05-23T02:53:44.692Z,12.80
2018-05-23T02:56:12.967Z,12.70
2018-05-23T02:58:41.268Z,12.70
2018-05-23T03:01:09.044Z,12.70
2018-05-23T03:03:36.575Z,12.80
2018-05-23T03:06:04.100Z,12.80
2018-05-23T03:08:31.618Z,12.80
2018-05-23T03:10:59.590Z,12.80
2018-05-23T03:13:27.103Z,12.80
2018-05-23T03:15:56.018Z,12.80
2018-05-23T03:18:23.535Z,12.90
2018-05-23T03:20:51.036Z,13.00
2018-05-23T03:23:19.165Z,12.90
2018-05-23T03:25:46.666Z,12.90
2018-05-23T03:28:14.695Z,13.00
2018-05-23T03:30:42.191Z,13.00
2018-05-23T03:33:09.704Z,12.90
2018-05-23T03:35:37.223Z,12.90
2018-05-23T03:38:05.040Z,12.90
2018-05-23T03:40:33.371Z,13.10
2018-05-23T03:43:01.077Z,13.00
2018-05-23T03:45:29.021Z,13.10
2018-05-23T03:47:57.233Z,13.00
2018-05-23T03:50:24.734Z,13.00
2018-05-23T03:52:52.272Z,13.10
2018-05-23T03:55:21.860Z,13.10
2018-05-23T03:57:50.091Z,13.10
2018-05-23T04:00:30.283Z,13.10
2018-05-23T04:03:09.850Z,13.10
2018-05-23T04:05:49.939Z,13.10
2018-05-23T04:08:17.858Z,13.10
2018-05-23T04:10:46.148Z,13.10
2018-05-23T04:13:14.439Z,13.10
2018-05-23T04:15:43.060Z,13.20
2018-05-23T04:18:11.034Z,13.10
2018-05-23T04:20:38.577Z,13.10
2018-05-23T04:23:06.090Z,13.30
2018-05-23T04:25:33.588Z,13.40
2018-05-23T04:28:01.123Z,13.50
2018-05-23T04:30:29.399Z,13.60
2018-05-23T04:32:57.881Z,13.60
2018-05-23T04:35:26.147Z,13.70
2018-05-23T04:37:57.176Z,13.70
2018-05-23T04:40:27.093Z,13.70
2018-05-23T04:42:55.380Z,13.60
2018-05-23T04:45:24.129Z,13.60
2018-05-23T04:47:51.632Z,13.60
2018-05-23T04:50:19.924Z,13.50
2018-05-23T04:52:48.195Z,13.50
2018-05-23T04:55:16.465Z,13.60
2018-05-23T04:57:44.757Z,13.80
2018-05-23T05:00:12.252Z,13.70
2018-05-23T05:02:40.244Z,13.80
2018-05-23T05:05:07.743Z,13.80
2018-05-23T05:07:35.239Z,13.90
2018-05-23T05:10:03.449Z,14.00
2018-05-23T05:12:31.828Z,13.90
2018-05-23T05:14:59.382Z,13.90
2018-05-23T05:17:26.881Z,14.10
2018-05-23T05:19:54.971Z,14.10
2018-05-23T05:22:22.496Z,14.10
2018-05-23T05:24:50.785Z,14.30
2018-05-23T05:27:18.313Z,14.30
2018-05-23T05:29:46.137Z,14.30
2018-05-23T05:32:14.096Z,14.30
2018-05-23T05:34:41.637Z,14.30
2018-05-23T05:37:10.487Z,14.20
2018-05-23T05:39:38.007Z,14.20
2018-05-23T05:42:05.506Z,14.20
2018-05-23T05:44:33.011Z,14.20
2018-05-23T05:47:00.817Z,14.30
2018-05-23T05:49:28.248Z,14.30
2018-05-23T05:51:55.768Z,14.40
2018-05-23T05:54:24.039Z,14.30
2018-05-23T05:56:51.544Z,14.30
2018-05-23T05:59:19.082Z,14.30
2018-05-23T06:01:46.580Z,14.30
2018-05-23T06:04:14.106Z,14.30
2018-05-23T06:06:41.608Z,14.20
2018-05-23T06:09:09.372Z,14.20
2018-05-23T06:11:38.154Z,14.30
2018-05-23T06:14:05.660Z,14.30
2018-05-23T06:16:34.069Z,14.20
2018-05-23T06:19:02.024Z,14.20
2018-05-23T06:21:29.529Z,14.20
2018-05-23T06:23:57.517Z,14.10
2018-05-23T06:26:25.015Z,14.20
2018-05-23T06:28:52.531Z,14.10
2018-05-23T06:31:21.823Z,14.20
2018-05-23T06:33:49.316Z,14.20
2018-05-23T06:36:17.603Z,14.20
2018-05-23T06:38:45.896Z,14.20
2018-05-23T06:41:13.424Z,14.20
2018-05-23T06:43:41.735Z,14.30
2018-05-23T06:46:09.971Z,14.50
2018-05-23T06:48:39.072Z,14.60
2018-05-23T06:51:07.339Z,14.70
2018-05-23T06:53:34.867Z,14.70
2018-05-23T06:56:02.365Z,14.80
2018-05-23T06:58:30.627Z,15.00
2018-05-23T07:00:58.147Z,15.00
2018-05-23T07:03:26.219Z,15.00
2018-05-23T07:05:53.790Z,15.00
2018-05-23T07:08:21.256Z,15.00
2018-05-23T07:10:49.676Z,15.00
2018-05-23T07:13:19.346Z,15.30
2018-05-23T07:15:46.831Z,15.20
2018-05-23T07:18:14.360Z,15.50
2018-05-23T07:20:41.863Z,15.70
2018-05-23T07:23:10.151Z,15.80
2018-05-23T07:25:37.675Z,15.80
2018-05-23T07:28:05.174Z,16.00
2018-05-23T07:30:32.699Z,16.20
2018-05-23T07:33:00.899Z,16.20
2018-05-23T07:35:29.159Z,16.10
2018-05-23T07:37:56.682Z,16.10
2018-05-23T07:40:24.193Z,16.20
2018-05-23T07:42:52.819Z,16.20
2018-05-23T07:45:20.319Z,16.20
2018-05-23T07:47:47.816Z,16.10
2018-05-23T07:50:15.331Z,16.00
2018-05-23T07:52:43.040Z,15.90
2018-05-23T07:55:10.565Z,16.00
2018-05-23T07:57:38.840Z,16.00
2018-05-23T08:00:06.363Z,16.00
2018-05-23T08:02:33.899Z,16.00
2018-05-23T08:05:01.400Z,16.00
2018-05-23T08:07:28.932Z,16.00
2018-05-23T08:09:56.423Z,16.10
2018-05-23T08:12:23.915Z,16.10
2018-05-23T08:14:52.191Z,16.30
2018-05-23T08:17:20.455Z,16.30
2018-05-23T08:19:49.551Z,16.20
2018-05-23T08:22:17.810Z,16.30
2018-05-23T08:24:45.327Z,16.30
2018-05-23T08:27:12.825Z,16.40
2018-05-23T08:29:40.385Z,16.40
2018-05-23T08:32:07.871Z,16.70
2018-05-23T08:34:36.133Z,17.10
2018-05-23T08:37:04.425Z,17.10
2018-05-23T08:39:32.696Z,17.00
2018-05-23T08:42:00.976Z,17.20
2018-05-23T08:44:29.261Z,17.20
2018-05-23T08:46:57.519Z,17.40
2018-05-23T08:49:26.757Z,17.70
2018-05-23T08:51:54.251Z,17.70
2018-05-23T08:54:21.748Z,17.90
2018-05-23T08:56:50.044Z,18.30
2018-05-23T08:59:17.877Z,18.30
2018-05-23T09:01:45.407Z,18.30
2018-05-23T09:04:13.014Z,18.60
2018-05-23T09:06:40.520Z,18.60
2018-05-23T09:09:08.045Z,18.60
2018-05-23T09:11:35.540Z,18.80
2018-05-23T09:14:03.056Z,18.90
2018-05-23T09:16:30.551Z,18.90
2018-05-23T09:18:58.047Z,18.90
2018-05-23T09:21:25.565Z,19.00
2018-05-23T09:23:53.056Z,19.30
2018-05-23T09:26:20.581Z,19.50
2018-05-23T09:28:48.075Z,19.60
2018-05-23T09:31:15.566Z,19.50
2018-05-23T09:33:44.680Z,19.60
2018-05-23T09:36:12.179Z,19.60
2018-05-23T09:38:39.691Z,19.80
2018-05-23T09:41:07.187Z,19.80
2018-05-23T09:43:34.679Z,19.70
2018-05-23T09:46:02.955Z,19.80
2018-05-23T09:48:31.702Z,19.90
2018-05-23T09:50:59.800Z,19.90
2018-05-23T09:53:27.300Z,20.00
2018-05-23T09:55:55.384Z,20.00
2018-05-23T09:58:22.899Z,20.10
2018-05-23T10:00:51.177Z,20.50
2018-05-23T10:03:18.691Z,20.50
2018-05-23T10:05:46.179Z,20.70
2018-05-23T10:08:13.671Z,20.60
2018-05-23T10:10:41.963Z,20.90
2018-05-23T10:13:09.455Z,20.90
2018-05-23T10:15:36.967Z,21.00
2018-05-23T10:18:05.222Z,21.40
2018-05-23T10:20:32.711Z,21.30
2018-05-23T10:23:01.645Z,21.60
2018-05-23T10:25:29.134Z,21.60
2018-05-23T10:27:56.652Z,21.60
2018-05-23T10:30:24.579Z,21.60
2018-05-23T10:32:52.832Z,22.20
2018-05-23T10:35:20.344Z,22.20
2018-05-23T10:37:47.877Z,22.40
2018-05-23T10:40:15.363Z,22.70
2018-05-23T10:42:42.852Z,22.90
2018-05-23T10:45:10.344Z,23.10
2018-05-23T10:47:38.620Z,22.90
2018-05-23T10:50:06.873Z,22.60
2018-05-23T10:52:34.403Z,22.60
2018-05-23T10:55:01.902Z,22.60
2018-05-23T10:57:29.391Z,22.50
2018-05-23T10:59:56.904Z,22.60
2018-05-23T11:02:24.403Z,22.80
2018-05-23T11:04:52.689Z,23.10
2018-05-23T11:07:20.180Z,23.10
2018-05-23T11:09:47.668Z,23.00
2018-05-23T11:12:15.961Z,23.20
2018-05-23T11:14:44.247Z,23.20
2018-05-23T11:17:11.714Z,23.20
2018-05-23T11:19:39.235Z,23.40
2018-05-23T11:22:06.723Z,23.80
2018-05-23T11:24:34.971Z,24.50
2018-05-23T11:27:03.145Z,24.40
2018-05-23T11:29:30.639Z,24.60
2018-05-23T11:31:58.129Z,25.00
2018-05-23T11:34:25.866Z,25.40
2018-05-23T11:36:53.368Z,25.30
2018-05-23T11:39:20.860Z,25.50
2018-05-23T11:41:49.136Z,26.40
2018-05-23T11:44:17.392Z,27.00
2018-05-23T11:46:44.968Z,27.00
2018-05-23T11:49:12.411Z,27.40
2018-05-23T11:51:39.916Z,27.50
2018-05-23T11:54:07.439Z,28.20
2018-05-23T11:56:34.930Z,29.30
2018-05-23T11:59:02.449Z,30.20
2018-05-23T12:01:29.936Z,30.40
2018-05-23T12:03:58.195Z,32.30
2018-05-23T12:06:25.707Z,32.30
2018-05-23T12:08:53.766Z,32.70
2018-05-23T12:11:21.280Z,33.60
2018-05-23T12:13:48.773Z,34.30
2018-05-23T12:16:16.267Z,34.30
2018-05-23T12:18:43.784Z,34.20
2018-05-23T12:21:11.541Z,35.10
2018-05-23T12:23:39.832Z,35.10
2018-05-23T12:26:07.326Z,35.10
2018-05-23T12:28:34.823Z,35.40
2018-05-23T12:31:04.071Z,34.20
2018-05-23T12:33:32.009Z,34.20
2018-05-23T12:35:59.528Z,34.00
2018-05-23T12:38:27.029Z,34.70
2018-05-23T12:40:54.534Z,34.80
2018-05-23T12:43:22.072Z,34.70
2018-05-23T12:45:49.558Z,34.70
2018-05-23T12:48:17.072Z,33.40
2018-05-23T12:50:44.575Z,32.90
2018-05-23T12:53:12.066Z,32.90
2018-05-23T12:55:40.365Z,31.50
2018-05-23T12:58:07.866Z,31.50
2018-05-23T13:00:37.101Z,31.50
2018-05-23T13:03:05.357Z,32.20
2018-05-23T13:05:32.846Z,32.20
2018-05-23T13:08:01.141Z,31.20
2018-05-23T13:10:28.628Z,31.20
2018-05-23T13:12:56.142Z,31.10
2018-05-23T13:15:24.395Z,30.60
2018-05-23T13:17:51.974Z,30.50
2018-05-23T13:20:19.428Z,30.30
2018-05-23T13:22:47.684Z,30.00
2018-05-23T13:25:15.195Z,29.90
2018-05-23T13:27:43.064Z,30.60
2018-05-23T13:30:10.567Z,29.60
2018-05-23T13:32:38.860Z,30.40
2018-05-23T13:35:07.936Z,29.90
2018-05-23T13:37:35.448Z,29.90
2018-05-23T13:40:03.396Z,30.20
2018-05-23T13:42:31.647Z,30.10
2018-05-23T13:44:59.862Z,30.10
2018-05-23T13:47:27.347Z,29.80
2018-05-23T13:49:54.874Z,29.70
2018-05-23T13:52:22.867Z,29.90
2018-05-23T13:54:50.358Z,30.00
2018-05-23T13:57:17.878Z,30.30
2018-05-23T13:59:45.364Z,29.20
2018-05-23T14:02:12.887Z,29.50
2018-05-23T14:04:40.379Z,29.60
2018-05-23T14:07:07.868Z,28.90
2018-05-23T14:09:35.391Z,29.00
2018-05-23T14:12:02.888Z,29.70
2018-05-23T14:14:30.833Z,29.20
2018-05-23T14:16:58.330Z,29.70
2018-05-23T14:19:27.070Z,29.10
2018-05-23T14:21:54.556Z,29.00
2018-05-23T14:24:24.666Z,28.70
2018-05-23T14:26:52.179Z,28.10
2018-05-23T14:29:19.669Z,28.00
2018-05-23T14:31:47.164Z,27.30
2018-05-23T14:34:15.445Z,26.80
2018-05-23T14:36:43.699Z,26.80
2018-05-23T14:39:11.207Z,26.80
2018-05-23T14:41:38.699Z,27.00
2018-05-23T14:44:06.196Z,27.00
2018-05-23T14:46:34.477Z,27.30
2018-05-23T14:49:02.735Z,27.10
2018-05-23T14:51:30.252Z,27.00
2018-05-23T14:53:57.739Z,26.80
2018-05-23T14:56:25.230Z,26.50
2018-05-23T14:58:53.507Z,26.40
2018-05-23T15:01:21.771Z,26.00
2018-05-23T15:03:50.055Z,25.80
2018-05-23T15:06:18.313Z,26.00
2018-05-23T15:08:45.799Z,26.00
2018-05-23T15:11:13.385Z,25.80
2018-05-23T15:13:40.879Z,25.50
2018-05-23T15:16:09.192Z,25.30
2018-05-23T15:18:37.459Z,24.60
2018-05-23T15:21:04.948Z,24.60
2018-05-23T15:23:32.463Z,24.40
2018-05-23T15:25:59.960Z,24.10
2018-05-23T15:28:28.179Z,23.90
2018-05-23T15:30:55.663Z,23.70
2018-05-23T15:33:23.153Z,23.60
2018-05-23T15:35:50.671Z,23.40
2018-05-23T15:38:19.459Z,23.30
2018-05-23T15:40:46.967Z,23.20
2018-05-23T15:43:14.455Z,23.20
2018-05-23T15:45:41.943Z,22.90
2018-05-23T15:48:09.452Z,22.50
2018-05-23T15:50:36.950Z,22.10
2018-05-23T15:53:05.252Z,22.10
2018-05-23T15:55:34.299Z,22.00
2018-05-23T15:58:01.792Z,21.90
2018-05-23T16:00:29.304Z,21.90
2018-05-23T16:02:56.840Z,21.90
2018-05-23T16:05:25.123Z,21.90
2018-05-23T16:07:52.607Z,21.90
2018-05-23T16:10:20.095Z,21.90
2018-05-23T16:12:47.609Z,21.90
2018-05-23T16:15:15.100Z,21.90
2018-05-23T16:17:42.613Z,21.90
2018-05-23T16:20:10.100Z,21.80
2018-05-23T16:22:37.584Z,21.80
2018-05-23T16:25:05.095Z,21.60
2018-05-23T16:27:32.748Z,21.20
2018-05-23T16:30:04.379Z,21.20
2018-05-23T16:32:32.641Z,20.90
2018-05-23T16:35:00.139Z,20.90
2018-05-23T16:37:38.063Z,20.70
2018-05-23T16:40:05.559Z,20.60
2018-05-23T16:42:33.687Z,20.60
2018-05-23T16:45:02.114Z,20.40
2018-05-23T16:47:29.659Z,20.20
2018-05-23T16:49:57.412Z,20.20
2018-05-23T16:52:24.931Z,20.30
2018-05-23T16:54:54.124Z,20.10
2018-05-23T16:57:23.824Z,20.30
2018-05-23T16:59:53.605Z,20.20
2018-05-23T17:02:21.112Z,20.20
2018-05-23T17:04:50.750Z,20.20
2018-05-23T17:07:18.333Z,20.10
2018-05-23T17:09:45.882Z,20.10
2018-05-23T17:12:13.395Z,20.00
2018-05-23T17:14:41.733Z,20.10
2018-05-23T17:17:09.235Z,20.10
2018-05-23T17:19:37.544Z,19.80
2018-05-23T17:22:05.119Z,19.80
2018-05-23T17:24:32.649Z,19.80
2018-05-23T17:27:00.184Z,19.80
2018-05-23T17:29:29.166Z,19.60
2018-05-23T17:31:58.595Z,19.60
2018-05-23T17:34:26.139Z,19.50
2018-05-23T17:36:54.908Z,19.40
2018-05-23T17:39:23.033Z,19.40
2018-05-23T17:41:50.602Z,19.20
2018-05-23T17:44:18.526Z,19.30
2018-05-23T17:46:48.701Z,19.40
2018-05-23T17:49:16.344Z,19.30
2018-05-23T17:51:44.220Z,19.50
2018-05-23T17:54:27.460Z,19.50
2018-05-23T17:56:55.283Z,19.50
2018-05-23T17:59:23.276Z,19.50
2018-05-23T18:01:51.968Z,19.50
2018-05-23T18:04:20.684Z,19.40
2018-05-23T18:06:49.477Z,19.40
2018-05-23T18:09:18.362Z,19.50
2018-05-23T18:11:50.764Z,19.50
2018-05-23T18:14:21.014Z,19.20
2018-05-23T18:16:53.019Z,19.20
2018-05-23T18:19:21.162Z,19.20
2018-05-23T18:21:49.961Z,19.20
2018-05-23T18:24:19.194Z,19.10
2018-05-23T18:29:22.138Z,19.10
2018-05-23T18:31:51.539Z,19.00
2018-05-23T18:34:24.873Z,19.00
2018-05-23T18:36:52.968Z,18.90
2018-05-23T18:39:20.968Z,18.80
2018-05-23T18:41:49.401Z,19.00
2018-05-23T18:44:16.929Z,18.90
2018-05-23T18:46:47.269Z,19.00
2018-05-23T18:49:14.978Z,18.90
2018-05-23T18:51:43.549Z,18.60
2018-05-23T18:54:11.225Z,18.60
2018-05-23T18:56:44.507Z,18.70
2018-05-23T19:01:48.392Z,18.60
2018-05-23T19:04:19.831Z,18.60
2018-05-23T19:06:49.391Z,18.60
2018-05-23T19:09:17.128Z,18.60
2018-05-23T19:11:46.377Z,18.60
2018-05-23T19:14:13.935Z,18.60
2018-05-23T19:16:42.315Z,18.40
2018-05-23T19:19:12.153Z,18.30
2018-05-23T19:21:39.803Z,18.30
2018-05-23T19:24:09.818Z,18.40
2018-05-23T19:26:39.283Z,18.30
2018-05-23T19:29:08.228Z,18.30
2018-05-23T19:31:39.451Z,18.40
2018-05-23T19:34:09.965Z,18.30
2018-05-23T19:36:41.455Z,18.30
2018-05-23T19:39:10.187Z,18.30
2018-05-23T19:41:38.666Z,18.20
2018-05-23T19:44:07.301Z,18.20
2018-05-23T19:46:36.426Z,18.10
2018-05-23T19:49:06.277Z,18.10
2018-05-23T19:51:35.878Z,18.00
2018-05-23T19:54:03.586Z,18.00
2018-05-23T20:05:26.277Z,18.00
2018-05-23T20:23:09.356Z,17.50
2018-05-23T20:25:49.554Z,17.50
2018-05-23T20:28:39.644Z,17.50
2018-05-23T20:31:45.342Z,17.50
2018-05-23T20:38:09.302Z,17.60
2018-05-23T20:49:47.627Z,17.70
2018-05-23T20:52:15.275Z,17.60
2018-05-23T20:54:42.817Z,17.60
2018-05-23T20:57:11.060Z,17.80
2018-05-23T20:59:38.577Z,17.70
2018-05-23T21:02:06.128Z,17.80
2018-05-23T21:04:34.401Z,17.70
2018-05-23T21:07:01.902Z,17.70
2018-05-23T21:09:29.381Z,17.80
2018-05-23T21:11:56.854Z,17.80
2018-05-23T21:14:25.117Z,18.00
2018-05-23T21:16:52.689Z,18.00
2018-05-23T21:19:20.972Z,18.10
2018-05-23T21:21:49.229Z,18.00
2018-05-23T21:24:16.733Z,18.00
2018-05-23T21:26:44.285Z,17.90
2018-05-23T21:29:11.766Z,17.90
2018-05-23T21:31:39.261Z,17.90
2018-05-23T21:34:06.825Z,17.90
2018-05-23T21:36:35.066Z,17.90
2018-05-23T21:39:02.561Z,17.90
2018-05-23T21:41:30.834Z,18.00
2018-05-23T21:43:59.110Z,17.90
2018-05-23T21:46:27.350Z,18.00
2018-05-23T21:48:54.826Z,18.00
2018-05-23T21:51:22.407Z,18.00
2018-05-23T21:53:50.657Z,17.90
2018-05-23T21:56:18.270Z,17.90
2018-05-23T21:58:45.745Z,17.90
2018-05-23T22:01:13.221Z,17.80
2018-05-23T22:03:40.719Z,17.70
2018-05-23T22:06:08.953Z,17.70
2018-05-23T22:08:36.449Z,17.60
2018-05-23T22:11:04.696Z,17.80
2018-05-23T22:13:32.173Z,17.80
2018-05-23T22:16:00.441Z,17.70
2018-05-23T22:18:28.686Z,17.70
2018-05-23T22:20:56.181Z,17.60
2018-05-23T22:23:24.421Z,17.60
2018-05-23T22:25:51.897Z,17.60
2018-05-23T22:28:19.469Z,17.60
2018-05-23T22:30:47.713Z,17.50
2018-05-23T22:33:15.214Z,17.50
2018-05-23T22:35:43.452Z,17.40
2018-05-23T22:38:10.933Z,17.30
2018-05-23T22:40:39.209Z,17.50
2018-05-23T22:43:07.482Z,17.50
2018-05-23T22:45:35.761Z,17.40
2018-05-23T22:48:04.003Z,17.40
2018-05-23T22:50:31.497Z,17.40
2018-05-23T22:52:59.878Z,17.40
2018-05-23T22:55:28.124Z,17.50
2018-05-23T22:57:55.620Z,17.50
2018-05-23T23:00:26.961Z,17.40
